Time,TemperatureF,DewpointF,PressureIn,WindDirection,WindDirectionDegrees,WindSpeedMPH,WindSpeedGustMPH,Humidity,HourlyPrecipIn,Conditions,Clouds,dailyrainin,SoftwareType,DateUTC
2013-11-27 01:22:00,11.0,3.0,-100.00,NW,325,5.0,10.0,69,-99.99,,,-99.99,,2013-11-27 07:22:00,
2013-11-27 01:32:00,11.0,3.0,-100.00,NW,325,5.0,10.0,69,-99.99,,,-99.99,,2013-11-27 07:32:00,
2013-11-27 01:42:00,11.0,3.0,-100.00,NW,325,5.0,10.0,69,-99.99,,,-99.99,,2013-11-27 07:42:00,
2013-11-27 01:52:00,11.0,3.0,-100.00,NW,325,5.0,10.0,69,-99.99,,,-99.99,,2013-11-27 07:52:00,
2013-11-27 05:22:00,9.0,5.0,-100.00,West,280,2.0,7.0,83,-99.99,,,-99.99,,2013-11-27 11:22:00,
2013-11-27 05:33:00,9.0,5.0,-100.00,West,280,2.0,7.0,83,-99.99,,,-99.99,,2013-11-27 11:33:00,
2013-11-27 05:42:00,9.0,5.0,-100.00,West,280,2.0,7.0,83,-99.99,,,-99.99,,2013-11-27 11:42:00,
2013-11-27 05:53:00,9.0,5.0,-100.00,West,280,2.0,7.0,83,-99.99,,,-99.99,,2013-11-27 11:53:00,
2013-11-27 06:22:00,9.0,5.0,-100.00,WNW,295,1.0,4.0,85,-99.99,,,-99.99,,2013-11-27 12:22:00,
2013-11-27 06:32:00,9.0,5.0,-100.00,WNW,295,1.0,4.0,85,-99.99,,,-99.99,,2013-11-27 12:32:00,
2013-11-27 06:42:00,9.0,5.0,-100.00,WNW,295,1.0,4.0,85,-99.99,,,-99.99,,2013-11-27 12:42:00,
2013-11-27 06:52:00,9.0,5.0,-100.00,WNW,295,1.0,4.0,85,-99.99,,,-99.99,,2013-11-27 12:52:00,
2013-11-27 07:22:00,8.0,5.0,-100.00,WSW,240,2.0,4.0,89,-99.99,,,-99.99,,2013-11-27 13:22:00,
2013-11-27 07:32:00,8.0,5.0,-100.00,WSW,240,2.0,4.0,89,-99.99,,,-99.99,,2013-11-27 13:32:00,
2013-11-27 07:42:00,8.0,5.0,-100.00,WSW,240,2.0,4.0,89,-99.99,,,-99.99,,2013-11-27 13:42:00,
2013-11-27 07:52:00,8.0,5.0,-100.00,WSW,240,2.0,4.0,89,-99.99,,,-99.99,,2013-11-27 13:52:00,
2013-11-27 08:22:00,8.0,6.0,-100.00,West,270,1.0,4.0,91,-99.99,,,-99.99,,2013-11-27 14:22:00,
2013-11-27 08:32:00,8.0,6.0,-100.00,West,270,1.0,4.0,91,-99.99,,,-99.99,,2013-11-27 14:32:00,
2013-11-27 08:42:00,8.0,6.0,-100.00,West,270,1.0,4.0,91,-99.99,,,-99.99,,2013-11-27 14:42:00,
2013-11-27 08:53:00,8.0,6.0,-100.00,West,270,1.0,4.0,91,-99.99,,,-99.99,,2013-11-27 14:53:00,
2013-11-27 12:22:00,26.0,12.0,-100.00,North,10,1.0,6.0,54,-99.99,,,-99.99,,2013-11-27 18:22:00,
2013-11-27 12:32:00,26.0,12.0,-100.00,North,10,1.0,6.0,54,-99.99,,,-99.99,,2013-11-27 18:32:00,
2013-11-27 12:43:00,26.0,12.0,-100.00,North,10,1.0,6.0,54,-99.99,,,-99.99,,2013-11-27 18:43:00,
2013-11-27 12:52:00,26.0,12.0,-100.00,North,10,1.0,6.0,54,-99.99,,,-99.99,,2013-11-27 18:52:00,
2013-11-27 13:22:00,27.0,10.0,-100.00,NW,320,1.0,4.0,50,-99.99,,,-99.99,,2013-11-27 19:22:00,
2013-11-27 13:32:00,27.0,10.0,-100.00,NW,320,1.0,4.0,50,-99.99,,,-99.99,,2013-11-27 19:32:00,
2013-11-27 13:42:00,27.0,10.0,-100.00,NW,320,1.0,4.0,50,-99.99,,,-99.99,,2013-11-27 19:42:00,
2013-11-27 13:52:00,27.0,10.0,-100.00,NW,320,1.0,4.0,50,-99.99,,,-99.99,,2013-11-27 19:52:00,
2013-11-27 14:22:00,27.0,11.0,-100.00,SE,140,2.0,7.0,50,-99.99,,,-99.99,,2013-11-27 20:22:00,
2013-11-27 14:32:00,27.0,11.0,-100.00,SE,140,2.0,7.0,50,-99.99,,,-99.99,,2013-11-27 20:32:00,
2013-11-27 14:42:00,27.0,11.0,-100.00,SE,140,2.0,7.0,50,-99.99,,,-99.99,,2013-11-27 20:42:00,
2013-11-27 14:52:00,27.0,11.0,-100.00,SE,140,2.0,7.0,50,-99.99,,,-99.99,,2013-11-27 20:52:00,
2013-11-27 15:22:00,26.0,8.0,-100.00,SE,125,0.0,5.0,48,-99.99,,,-99.99,,2013-11-27 21:22:00,
2013-11-27 15:33:00,26.0,8.0,-100.00,SE,125,0.0,5.0,48,-99.99,,,-99.99,,2013-11-27 21:33:00,
2013-11-27 15:43:00,26.0,8.0,-100.00,SE,125,0.0,5.0,48,-99.99,,,-99.99,,2013-11-27 21:43:00,
2013-11-27 15:53:00,26.0,8.0,-100.00,SE,125,0.0,5.0,48,-99.99,,,-99.99,,2013-11-27 21:53:00,
2013-11-27 16:23:00,24.0,9.0,-100.00,SW,220,4.0,6.0,52,-99.99,,,-99.99,,2013-11-27 22:23:00,
2013-11-27 16:33:00,24.0,9.0,-100.00,SW,220,4.0,6.0,52,-99.99,,,-99.99,,2013-11-27 22:33:00,
2013-11-27 16:43:00,24.0,9.0,-100.00,SW,220,4.0,6.0,52,-99.99,,,-99.99,,2013-11-27 22:43:00,
2013-11-27 16:52:00,24.0,9.0,-100.00,SW,220,4.0,6.0,52,-99.99,,,-99.99,,2013-11-27 22:52:00,
2013-11-27 18:22:00,24.0,10.0,-100.00,SE,130,3.0,7.0,55,-99.99,,,-99.99,,2013-11-28 00:22:00,
2013-11-27 18:32:00,24.0,10.0,-100.00,SE,130,3.0,7.0,55,-99.99,,,-99.99,,2013-11-28 00:32:00,
2013-11-27 18:42:00,24.0,10.0,-100.00,SE,130,3.0,7.0,55,-99.99,,,-99.99,,2013-11-28 00:42:00,
2013-11-27 18:52:00,24.0,10.0,-100.00,SE,130,3.0,7.0,55,-99.99,,,-99.99,,2013-11-28 00:52:00,
2013-11-27 19:22:00,24.0,10.0,-100.00,ESE,115,3.0,7.0,55,-99.99,,,-99.99,,2013-11-28 01:22:00,
2013-11-27 19:32:00,24.0,10.0,-100.00,ESE,115,3.0,7.0,55,-99.99,,,-99.99,,2013-11-28 01:32:00,
2013-11-27 19:42:00,24.0,10.0,-100.00,ESE,115,3.0,7.0,55,-99.99,,,-99.99,,2013-11-28 01:42:00,
2013-11-27 20:21:00,24.0,10.0,-100.00,SE,140,4.0,7.0,55,-99.99,,,-99.99,,2013-11-28 02:21:00,
2013-11-27 20:32:00,24.0,10.0,-100.00,SE,140,4.0,7.0,55,-99.99,,,-99.99,,2013-11-28 02:32:00,
2013-11-27 20:41:00,24.0,10.0,-100.00,SE,140,4.0,7.0,55,-99.99,,,-99.99,,2013-11-28 02:41:00,
2013-11-27 20:52:00,24.0,10.0,-100.00,SE,140,4.0,7.0,55,-99.99,,,-99.99,,2013-11-28 02:52:00,
2013-11-27 21:21:00,24.0,11.0,-100.00,SSE,165,4.0,8.0,57,-99.99,,,-99.99,,2013-11-28 03:21:00,
2013-11-27 21:33:00,24.0,11.0,-100.00,SSE,165,4.0,8.0,57,-99.99,,,-99.99,,2013-11-28 03:33:00,
2013-11-27 21:44:00,24.0,11.0,-100.00,SSE,165,4.0,8.0,57,-99.99,,,-99.99,,2013-11-28 03:44:00,
2013-11-27 21:53:00,24.0,11.0,-100.00,SSE,165,4.0,8.0,57,-99.99,,,-99.99,,2013-11-28 03:53:00,
2013-11-27 22:23:00,23.0,11.0,-100.00,SE,135,3.0,7.0,58,-99.99,,,-99.99,,2013-11-28 04:23:00,
2013-11-27 22:33:00,23.0,11.0,-100.00,SE,135,3.0,7.0,58,-99.99,,,-99.99,,2013-11-28 04:33:00,
2013-11-27 22:42:00,23.0,11.0,-100.00,SE,135,3.0,7.0,58,-99.99,,,-99.99,,2013-11-28 04:42:00,
2013-11-27 22:52:00,23.0,11.0,-100.00,SE,135,3.0,7.0,58,-99.99,,,-99.99,,2013-11-28 04:52:00,